sensor_id;sensor_type;location;lat;lon;timestamp;pressure;altitude;pressure_sealevel;temperature
70123;BMP280;57489;37.404;24.920;2023-08-12T00:04:29;100150.97;;;28.24
70123;BMP280;57489;37.404;24.920;2023-08-12T00:09:30;100149.06;;;28.25
70123;BMP280;57489;37.404;24.920;2023-08-12T00:14:30;100149.38;;;28.09
70123;BMP280;57489;37.404;24.920;2023-08-12T00:19:31;100143.94;;;28.02
70123;BMP280;57489;37.404;24.920;2023-08-12T00:24:31;100141.66;;;28.04
70123;BMP280;57489;37.404;24.920;2023-08-12T00:29:32;100139.31;;;27.99
70123;BMP280;57489;37.404;24.920;2023-08-12T00:34:32;100136.25;;;28.00
70123;BMP280;57489;37.404;24.920;2023-08-12T00:39:33;100137.78;;;27.98
70123;BMP280;57489;37.404;24.920;2023-08-12T00:44:33;100135.06;;;27.94
70123;BMP280;57489;37.404;24.920;2023-08-12T00:49:34;100131.56;;;27.90
70123;BMP280;57489;37.404;24.920;2023-08-12T00:54:34;100123.88;;;27.88
70123;BMP280;57489;37.404;24.920;2023-08-12T00:59:35;100132.72;;;27.92
70123;BMP280;57489;37.404;24.920;2023-08-12T01:04:37;100132.28;;;27.76
70123;BMP280;57489;37.404;24.920;2023-08-12T01:09:37;100127.25;;;27.75
70123;BMP280;57489;37.404;24.920;2023-08-12T01:15:03;100118.34;;;27.67
70123;BMP280;57489;37.404;24.920;2023-08-12T01:20:06;100115.28;;;27.69
70123;BMP280;57489;37.404;24.920;2023-08-12T01:25:08;100113.81;;;27.78
70123;BMP280;57489;37.404;24.920;2023-08-12T01:30:09;100109.97;;;27.86
70123;BMP280;57489;37.404;24.920;2023-08-12T01:35:21;100103.81;;;27.89
70123;BMP280;57489;37.404;24.920;2023-08-12T01:40:24;100104.56;;;27.79
70123;BMP280;57489;37.404;24.920;2023-08-12T01:45:24;100096.81;;;27.78
70123;BMP280;57489;37.404;24.920;2023-08-12T01:50:25;100094.53;;;27.83
70123;BMP280;57489;37.404;24.920;2023-08-12T01:55:26;100090.59;;;27.70
70123;BMP280;57489;37.404;24.920;2023-08-12T02:00:26;100085.19;;;27.63
70123;BMP280;57489;37.404;24.920;2023-08-12T02:05:26;100086.41;;;27.73
70123;BMP280;57489;37.404;24.920;2023-08-12T02:10:27;100092.91;;;27.68
70123;BMP280;57489;37.404;24.920;2023-08-12T02:15:27;100081.34;;;27.64
70123;BMP280;57489;37.404;24.920;2023-08-12T02:20:28;100089.00;;;27.55
70123;BMP280;57489;37.404;24.920;2023-08-12T02:25:28;100094.44;;;27.62
70123;BMP280;57489;37.404;24.920;2023-08-12T02:30:29;100082.13;;;27.68
70123;BMP280;57489;37.404;24.920;2023-08-12T02:35:29;100085.97;;;27.60
70123;BMP280;57489;37.404;24.920;2023-08-12T02:40:30;100087.78;;;27.49
70123;BMP280;57489;37.404;24.920;2023-08-12T02:45:30;100093.19;;;27.49
70123;BMP280;57489;37.404;24.920;2023-08-12T02:50:31;100085.06;;;27.38
70123;BMP280;57489;37.404;24.920;2023-08-12T02:55:31;100085.09;;;27.49
70123;BMP280;57489;37.404;24.920;2023-08-12T03:00:32;100081.94;;;27.32
70123;BMP280;57489;37.404;24.920;2023-08-12T03:05:32;100088.16;;;27.44
70123;BMP280;57489;37.404;24.920;2023-08-12T03:10:33;100088.47;;;27.31
70123;BMP280;57489;37.404;24.920;2023-08-12T03:15:34;100076.53;;;27.32
70123;BMP280;57489;37.404;24.920;2023-08-12T03:20:37;100062.72;;;27.38
70123;BMP280;57489;37.404;24.920;2023-08-12T03:25:37;100071.88;;;27.29
70123;BMP280;57489;37.404;24.920;2023-08-12T03:30:38;100062.63;;;27.23
70123;BMP280;57489;37.404;24.920;2023-08-12T03:35:38;100072.75;;;27.41
70123;BMP280;57489;37.404;24.920;2023-08-12T03:40:39;100077.28;;;27.29
70123;BMP280;57489;37.404;24.920;2023-08-12T03:45:43;100063.03;;;27.25
70123;BMP280;57489;37.404;24.920;2023-08-12T03:50:44;100072.66;;;27.26
70123;BMP280;57489;37.404;24.920;2023-08-12T03:55:45;100071.06;;;27.18
70123;BMP280;57489;37.404;24.920;2023-08-12T04:00:45;100058.72;;;27.14
70123;BMP280;57489;37.404;24.920;2023-08-12T04:05:49;100054.91;;;27.22
70123;BMP280;57489;37.404;24.920;2023-08-12T04:10:51;100071.13;;;27.25
70123;BMP280;57489;37.404;24.920;2023-08-12T04:15:52;100069.91;;;27.16
70123;BMP280;57489;37.404;24.920;2023-08-12T04:20:53;100066.13;;;27.27
70123;BMP280;57489;37.404;24.920;2023-08-12T04:25:53;100067.69;;;27.28
70123;BMP280;57489;37.404;24.920;2023-08-12T04:30:54;100063.84;;;27.33
70123;BMP280;57489;37.404;24.920;2023-08-12T04:35:54;100071.94;;;27.36
70123;BMP280;57489;37.404;24.920;2023-08-12T04:40:55;100062.41;;;27.50
70123;BMP280;57489;37.404;24.920;2023-08-12T04:45:55;100067.44;;;27.55
70123;BMP280;57489;37.404;24.920;2023-08-12T04:50:56;100058.19;;;27.56
70123;BMP280;57489;37.404;24.920;2023-08-12T04:55:56;100041.31;;;27.70
70123;BMP280;57489;37.404;24.920;2023-08-12T05:00:57;100042.81;;;27.60
70123;BMP280;57489;37.404;24.920;2023-08-12T05:05:57;100047.06;;;27.64
70123;BMP280;57489;37.404;24.920;2023-08-12T05:10:58;100045.13;;;27.65
70123;BMP280;57489;37.404;24.920;2023-08-12T05:15:58;100035.16;;;27.69
70123;BMP280;57489;37.404;24.920;2023-08-12T05:20:59;100033.66;;;27.82
70123;BMP280;57489;37.404;24.920;2023-08-12T05:25:59;100041.00;;;27.85
70123;BMP280;57489;37.404;24.920;2023-08-12T05:31:00;100042.19;;;27.91
70123;BMP280;57489;37.404;24.920;2023-08-12T05:36:00;100046.81;;;27.91
70123;BMP280;57489;37.404;24.920;2023-08-12T05:41:00;100041.38;;;27.87
70123;BMP280;57489;37.404;24.920;2023-08-12T05:46:01;100042.19;;;27.91
70123;BMP280;57489;37.404;24.920;2023-08-12T05:51:01;100031.38;;;27.95
70123;BMP280;57489;37.404;24.920;2023-08-12T05:56:02;100041.44;;;28.09
70123;BMP280;57489;37.404;24.920;2023-08-12T06:01:02;100029.88;;;28.01
70123;BMP280;57489;37.404;24.920;2023-08-12T06:06:03;100029.09;;;28.11
70123;BMP280;57489;37.404;24.920;2023-08-12T06:11:03;100027.19;;;28.19
70123;BMP280;57489;37.404;24.920;2023-08-12T06:16:04;100032.22;;;28.31
70123;BMP280;57489;37.404;24.920;2023-08-12T06:21:04;100035.31;;;28.26
70123;BMP280;57489;37.404;24.920;2023-08-12T06:26:05;100043.81;;;28.28
70123;BMP280;57489;37.404;24.920;2023-08-12T06:31:05;100048.06;;;28.40
70123;BMP280;57489;37.404;24.920;2023-08-12T06:36:06;100036.13;;;28.51
70123;BMP280;57489;37.404;24.920;2023-08-12T06:41:06;100041.50;;;28.55
70123;BMP280;57489;37.404;24.920;2023-08-12T06:46:07;100042.28;;;28.63
70123;BMP280;57489;37.404;24.920;2023-08-12T06:51:07;100051.53;;;28.76
70123;BMP280;57489;37.404;24.920;2023-08-12T06:56:08;100056.19;;;28.75
70123;BMP280;57489;37.404;24.920;2023-08-12T07:01:08;100053.88;;;28.81
70123;BMP280;57489;37.404;24.920;2023-08-12T07:06:09;100046.94;;;28.80
70123;BMP280;57489;37.404;24.920;2023-08-12T07:11:09;100041.50;;;28.91
70123;BMP280;57489;37.404;24.920;2023-08-12T07:16:10;100058.44;;;29.05
70123;BMP280;57489;37.404;24.920;2023-08-12T07:21:10;100048.06;;;29.07
70123;BMP280;57489;37.404;24.920;2023-08-12T07:26:11;100049.94;;;29.18
70123;BMP280;57489;37.404;24.920;2023-08-12T07:31:12;100044.94;;;29.20
70123;BMP280;57489;37.404;24.920;2023-08-12T07:36:12;100048.03;;;29.22
70123;BMP280;57489;37.404;24.920;2023-08-12T07:41:13;100036.78;;;29.34
70123;BMP280;57489;37.404;24.920;2023-08-12T07:46:13;100034.88;;;29.27
70123;BMP280;57489;37.404;24.920;2023-08-12T07:51:14;100039.50;;;29.34
70123;BMP280;57489;37.404;24.920;2023-08-12T07:56:14;100042.56;;;29.43
70123;BMP280;57489;37.404;24.920;2023-08-12T08:01:14;100030.53;;;29.51
70123;BMP280;57489;37.404;24.920;2023-08-12T08:06:15;100032.38;;;29.68
70123;BMP280;57489;37.404;24.920;2023-08-12T08:11:15;100035.41;;;29.85
70123;BMP280;57489;37.404;24.920;2023-08-12T08:16:16;100046.63;;;29.80
70123;BMP280;57489;37.404;24.920;2023-08-12T08:21:16;100044.25;;;29.89
70123;BMP280;57489;37.404;24.920;2023-08-12T08:26:17;100040.31;;;30.04
70123;BMP280;57489;37.404;24.920;2023-08-12T08:31:17;100037.59;;;30.04
70123;BMP280;57489;37.404;24.920;2023-08-12T08:36:17;100048.78;;;30.13
70123;BMP280;57489;37.404;24.920;2023-08-12T08:41:19;100053.41;;;30.09
70123;BMP280;57489;37.404;24.920;2023-08-12T08:46:20;100045.25;;;30.16
70123;BMP280;57489;37.404;24.920;2023-08-12T08:51:21;100054.53;;;30.19
70123;BMP280;57489;37.404;24.920;2023-08-12T08:56:21;100058.00;;;30.19
70123;BMP280;57489;37.404;24.920;2023-08-12T09:01:22;100053.41;;;30.09
70123;BMP280;57489;37.404;24.920;2023-08-12T09:06:28;100042.03;;;30.36
70123;BMP280;57489;37.404;24.920;2023-08-12T09:11:29;100059.50;;;30.24
70123;BMP280;57489;37.404;24.920;2023-08-12T09:16:30;100049.38;;;30.31
70123;BMP280;57489;37.404;24.920;2023-08-12T09:21:31;100047.00;;;30.37
70123;BMP280;57489;37.404;24.920;2023-08-12T09:26:31;100047.00;;;30.37
70123;BMP280;57489;37.404;24.920;2023-08-12T09:31:32;100048.44;;;30.56
70123;BMP280;57489;37.404;24.920;2023-08-12T09:36:33;100042.25;;;30.55
70123;BMP280;57489;37.404;24.920;2023-08-12T09:41:34;100045.22;;;30.68
70123;BMP280;57489;37.404;24.920;2023-08-12T09:46:35;100046.03;;;30.61
70123;BMP280;57489;37.404;24.920;2023-08-12T09:51:36;100039.69;;;30.82
70123;BMP280;57489;37.404;24.920;2023-08-12T09:56:37;100042.31;;;30.89
70123;BMP280;57489;37.404;24.920;2023-08-12T10:01:40;100040.50;;;30.79
70123;BMP280;57489;37.404;24.920;2023-08-12T10:06:42;100039.69;;;30.82
70123;BMP280;57489;37.404;24.920;2023-08-12T10:11:44;100024.00;;;30.97
70123;BMP280;57489;37.404;24.920;2023-08-12T10:16:46;100020.94;;;30.95
70123;BMP280;57489;37.404;24.920;2023-08-12T10:21:48;100044.09;;;31.03
70123;BMP280;57489;37.404;24.920;2023-08-12T10:26:51;100038.69;;;31.03
70123;BMP280;57489;37.404;24.920;2023-08-12T10:31:52;100035.03;;;31.17
70123;BMP280;57489;37.404;24.920;2023-08-12T10:36:56;100045.34;;;31.29
70123;BMP280;57489;37.404;24.920;2023-08-12T10:41:57;100036.22;;;31.16
70123;BMP280;57489;37.404;24.920;2023-08-12T10:46:58;100037.72;;;31.17
70123;BMP280;57489;37.404;24.920;2023-08-12T10:51:58;100025.44;;;31.09
70123;BMP280;57489;37.404;24.920;2023-08-12T11:02:28;100037.56;;;31.31
70123;BMP280;57489;37.404;24.920;2023-08-12T11:07:33;100027.47;;;31.35
70123;BMP280;57489;37.404;24.920;2023-08-12T11:12:34;100037.50;;;31.38
70123;BMP280;57489;37.404;24.920;2023-08-12T11:17:37;100042.06;;;31.41
70123;BMP280;57489;37.404;24.920;2023-08-12T11:22:39;100039.88;;;31.63
70123;BMP280;57489;37.404;24.920;2023-08-12T11:27:42;100033.03;;;31.82
70123;BMP280;57489;37.404;24.920;2023-08-12T11:32:48;100028.72;;;31.58
70123;BMP280;57489;37.404;24.920;2023-08-12T11:37:51;100022.44;;;31.61
70123;BMP280;57489;37.404;24.920;2023-08-12T11:42:53;100009.88;;;31.74
70123;BMP280;57489;37.404;24.920;2023-08-12T11:47:54;100015.22;;;31.77
70123;BMP280;57489;37.404;24.920;2023-08-12T11:52:57;100009.56;;;31.95
70123;BMP280;57489;37.404;24.920;2023-08-12T11:57:58;100006.63;;;31.82
70123;BMP280;57489;37.404;24.920;2023-08-12T12:02:58;100015.31;;;31.74
70123;BMP280;57489;37.404;24.920;2023-08-12T12:08:00;100004.38;;;31.77
70123;BMP280;57489;37.404;24.920;2023-08-12T12:13:02;100006.78;;;31.72
70123;BMP280;57489;37.404;24.920;2023-08-12T12:18:03;99994.13;;;31.89
70123;BMP280;57489;37.404;24.920;2023-08-12T12:23:09;100005.28;;;31.71
70123;BMP280;57489;37.404;24.920;2023-08-12T12:28:09;100006.72;;;31.79
70123;BMP280;57489;37.404;24.920;2023-08-12T12:33:10;100010.50;;;31.85
70123;BMP280;57489;37.404;24.920;2023-08-12T12:38:10;99999.63;;;31.85
70123;BMP280;57489;37.404;24.920;2023-08-12T12:43:11;99987.53;;;31.90
70123;BMP280;57489;37.404;24.920;2023-08-12T12:48:11;99980.75;;;32.01
70123;BMP280;57489;37.404;24.920;2023-08-12T12:53:12;99989.94;;;31.84
70123;BMP280;57489;37.404;24.920;2023-08-12T12:58:12;99981.16;;;31.76
70123;BMP280;57489;37.404;24.920;2023-08-12T13:03:13;99989.59;;;31.82
70123;BMP280;57489;37.404;24.920;2023-08-12T13:08:13;99992.88;;;31.70
70123;BMP280;57489;37.404;24.920;2023-08-12T13:13:14;100000.34;;;31.89
70123;BMP280;57489;37.404;24.920;2023-08-12T13:18:15;99999.72;;;32.05
70123;BMP280;57489;37.404;24.920;2023-08-12T13:23:15;99988.19;;;31.74
70123;BMP280;57489;37.404;24.920;2023-08-12T13:28:16;99995.75;;;31.82
70123;BMP280;57489;37.404;24.920;2023-08-12T13:33:18;99983.22;;;31.92
70123;BMP280;57489;37.404;24.920;2023-08-12T13:38:18;99985.50;;;31.97
70123;BMP280;57489;37.404;24.920;2023-08-12T13:43:19;99979.91;;;32.04
70123;BMP280;57489;37.404;24.920;2023-08-12T13:48:19;99977.66;;;31.99
70123;BMP280;57489;37.404;24.920;2023-08-12T13:53:20;99980.84;;;31.94
70123;BMP280;57489;37.404;24.920;2023-08-12T13:58:20;99985.81;;;31.99
70123;BMP280;57489;37.404;24.920;2023-08-12T14:03:21;99977.84;;;31.89
70123;BMP280;57489;37.404;24.920;2023-08-12T14:08:21;99976.03;;;32.05
70123;BMP280;57489;37.404;24.920;2023-08-12T14:13:22;99977.66;;;31.99
70123;BMP280;57489;37.404;24.920;2023-08-12T14:18:22;99982.28;;;32.02
70123;BMP280;57489;37.404;24.920;2023-08-12T14:23:23;99975.44;;;31.94
70123;BMP280;57489;37.404;24.920;2023-08-12T14:28:23;99985.50;;;31.97
70123;BMP280;57489;37.404;24.920;2023-08-12T14:33:24;99962.06;;;31.80
70123;BMP280;57489;37.404;24.920;2023-08-12T14:38:24;99956.00;;;31.72
70123;BMP280;57489;37.404;24.920;2023-08-12T14:43:25;99957.50;;;31.77
70123;BMP280;57489;37.404;24.920;2023-08-12T14:48:25;99953.84;;;31.87
70123;BMP280;57489;37.404;24.920;2023-08-12T14:53:25;99943.06;;;31.80
70123;BMP280;57489;37.404;24.920;2023-08-12T14:58:26;99946.78;;;31.93
70123;BMP280;57489;37.404;24.920;2023-08-12T15:03:26;99937.31;;;32.01
70123;BMP280;57489;37.404;24.920;2023-08-12T15:08:27;99941.78;;;31.88
70123;BMP280;57489;37.404;24.920;2023-08-12T15:13:28;99946.88;;;31.86
70123;BMP280;57489;37.404;24.920;2023-08-12T15:18:29;99940.69;;;31.86
70123;BMP280;57489;37.404;24.920;2023-08-12T15:23:29;99936.84;;;31.83
70123;BMP280;57489;37.404;24.920;2023-08-12T15:28:30;99943.03;;;31.83
70123;BMP280;57489;37.404;24.920;2023-08-12T15:33:30;99931.53;;;31.76
70123;BMP280;57489;37.404;24.920;2023-08-12T15:38:31;99940.16;;;31.71
70123;BMP280;57489;37.404;24.920;2023-08-12T15:43:31;99934.81;;;31.64
70123;BMP280;57489;37.404;24.920;2023-08-12T15:48:32;99931.75;;;31.62
70123;BMP280;57489;37.404;24.920;2023-08-12T15:53:32;99935.72;;;31.53
70123;BMP280;57489;37.404;24.920;2023-08-12T15:58:33;99927.47;;;31.37
70123;BMP280;57489;37.404;24.920;2023-08-12T16:03:33;99929.72;;;31.42
70123;BMP280;57489;37.404;24.920;2023-08-12T16:08:34;99931.78;;;31.31
70123;BMP280;57489;37.404;24.920;2023-08-12T16:13:34;99923.06;;;31.16
70123;BMP280;57489;37.404;24.920;2023-08-12T16:18:36;99933.91;;;31.20
70123;BMP280;57489;37.404;24.920;2023-08-12T16:23:36;99936.44;;;31.04
70123;BMP280;57489;37.404;24.920;2023-08-12T16:28:37;99930.00;;;30.90
70123;BMP280;57489;37.404;24.920;2023-08-12T16:33:37;99928.56;;;30.82
70123;BMP280;57489;37.404;24.920;2023-08-12T16:38:38;99942.94;;;30.76
70123;BMP280;57489;37.404;24.920;2023-08-12T16:43:38;99936.84;;;30.68
70123;BMP280;57489;37.404;24.920;2023-08-12T16:48:39;99932.31;;;30.58
70123;BMP280;57489;37.404;24.920;2023-08-12T16:53:39;99940.88;;;30.53
70123;BMP280;57489;37.404;24.920;2023-08-12T16:58:40;99944.41;;;30.46
70123;BMP280;57489;37.404;24.920;2023-08-12T17:03:40;99940.22;;;30.42
70123;BMP280;57489;37.404;24.920;2023-08-12T17:13:56;99938.56;;;30.51
70123;BMP280;57489;37.404;24.920;2023-08-12T17:18:56;99959.47;;;30.51
70123;BMP280;57489;37.404;24.920;2023-08-12T17:23:57;99946.28;;;30.53
70123;BMP280;57489;37.404;24.920;2023-08-12T17:28:57;99955.19;;;30.53
70123;BMP280;57489;37.404;24.920;2023-08-12T17:33:58;99964.09;;;30.54
70123;BMP280;57489;37.404;24.920;2023-08-12T17:38:58;99968.28;;;30.58
70123;BMP280;57489;37.404;24.920;2023-08-12T17:43:59;99963.22;;;30.64
70123;BMP280;57489;37.404;24.920;2023-08-12T17:49:00;99967.75;;;30.74
70123;BMP280;57489;37.404;24.920;2023-08-12T17:54:00;99967.03;;;30.70
70123;BMP280;57489;37.404;24.920;2023-08-12T17:59:01;99985.16;;;30.73
70123;BMP280;57489;37.404;24.920;2023-08-12T18:04:01;99976.31;;;30.69
70123;BMP280;57489;37.404;24.920;2023-08-12T18:09:01;99965.13;;;30.64
70123;BMP280;57489;37.404;24.920;2023-08-12T18:14:02;99980.25;;;30.65
70123;BMP280;57489;37.404;24.920;2023-08-12T18:19:02;99977.09;;;30.66
70123;BMP280;57489;37.404;24.920;2023-08-12T18:24:03;99979.47;;;30.64
70123;BMP280;57489;37.404;24.920;2023-08-12T18:29:04;99977.31;;;30.48
70123;BMP280;57489;37.404;24.920;2023-08-12T18:34:05;99980.38;;;30.47
70123;BMP280;57489;37.404;24.920;2023-08-12T18:39:05;99973.88;;;30.41
70123;BMP280;57489;37.404;24.920;2023-08-12T18:44:06;99977.75;;;30.40
70123;BMP280;57489;37.404;24.920;2023-08-12T18:49:06;99978.13;;;30.42
70123;BMP280;57489;37.404;24.920;2023-08-12T18:54:07;99984.38;;;30.35
70123;BMP280;57489;37.404;24.920;2023-08-12T18:59:07;99982.81;;;30.38
70123;BMP280;57489;37.404;24.920;2023-08-12T19:04:08;99975.47;;;30.35
70123;BMP280;57489;37.404;24.920;2023-08-12T19:09:08;99977.47;;;30.30
70123;BMP280;57489;37.404;24.920;2023-08-12T19:14:09;99969.78;;;30.25
70123;BMP280;57489;37.404;24.920;2023-08-12T19:19:09;99970.97;;;30.17
70123;BMP280;57489;37.404;24.920;2023-08-12T19:24:10;99963.44;;;30.39
70123;BMP280;57489;37.404;24.920;2023-08-12T19:29:10;99968.78;;;30.50
70123;BMP280;57489;37.404;24.920;2023-08-12T19:34:11;99962.59;;;30.46
70123;BMP280;57489;37.404;24.920;2023-08-12T19:39:11;99961.91;;;30.35
70123;BMP280;57489;37.404;24.920;2023-08-12T19:44:12;99963.13;;;30.34
70123;BMP280;57489;37.404;24.920;2023-08-12T19:49:12;99967.41;;;30.27
70123;BMP280;57489;37.404;24.920;2023-08-12T19:54:13;99972.50;;;30.25
70123;BMP280;57489;37.404;24.920;2023-08-12T19:59:14;99974.41;;;30.25
70123;BMP280;57489;37.404;24.920;2023-08-12T20:04:14;99966.31;;;30.21
70123;BMP280;57489;37.404;24.920;2023-08-12T20:09:15;99966.75;;;30.16
70123;BMP280;57489;37.404;24.920;2023-08-12T20:14:15;99964.38;;;30.22
70123;BMP280;57489;37.404;24.920;2023-08-12T20:19:16;99966.00;;;30.16
70123;BMP280;57489;37.404;24.920;2023-08-12T20:24:16;99965.63;;;30.14
70123;BMP280;57489;37.404;24.920;2023-08-12T20:29:17;99966.00;;;30.12
70123;BMP280;57489;37.404;24.920;2023-08-12T20:34:17;99969.84;;;30.18
70123;BMP280;57489;37.404;24.920;2023-08-12T20:39:18;99967.16;;;30.11
70123;BMP280;57489;37.404;24.920;2023-08-12T20:44:18;99975.28;;;30.11
70123;BMP280;57489;37.404;24.920;2023-08-12T20:49:18;99962.97;;;30.03
70123;BMP280;57489;37.404;24.920;2023-08-12T20:54:19;99963.75;;;30.00
70123;BMP280;57489;37.404;24.920;2023-08-12T20:59:20;99951.44;;;29.99
70123;BMP280;57489;37.404;24.920;2023-08-12T21:04:20;99953.69;;;30.00
70123;BMP280;57489;37.404;24.920;2023-08-12T21:09:21;99953.00;;;29.93
70123;BMP280;57489;37.404;24.920;2023-08-12T21:14:22;99960.00;;;29.87
70123;BMP280;57489;37.404;24.920;2023-08-12T21:19:22;99954.69;;;29.73
70123;BMP280;57489;37.404;24.920;2023-08-12T21:24:23;99955.53;;;29.59
70123;BMP280;57489;37.404;24.920;2023-08-12T21:29:23;99949.03;;;29.49
70123;BMP280;57489;37.404;24.920;2023-08-12T21:34:24;99942.50;;;29.43
70123;BMP280;57489;37.404;24.920;2023-08-12T21:39:24;99935.56;;;29.38
70123;BMP280;57489;37.404;24.920;2023-08-12T21:44:25;99941.78;;;29.28
70123;BMP280;57489;37.404;24.920;2023-08-12T21:49:25;99936.00;;;29.26
70123;BMP280;57489;37.404;24.920;2023-08-12T21:54:26;99926.38;;;29.22
70123;BMP280;57489;37.404;24.920;2023-08-12T21:59:26;99933.00;;;29.10
70123;BMP280;57489;37.404;24.920;2023-08-12T22:04:27;99925.66;;;29.10
70123;BMP280;57489;37.404;24.920;2023-08-12T22:09:28;99922.59;;;29.05
70123;BMP280;57489;37.404;24.920;2023-08-12T22:14:29;99925.66;;;29.14
70123;BMP280;57489;37.404;24.920;2023-08-12T22:19:29;99917.53;;;29.10
70123;BMP280;57489;37.404;24.920;2023-08-12T22:24:30;99919.47;;;29.06
70123;BMP280;57489;37.404;24.920;2023-08-12T22:29:30;99920.25;;;29.03
70123;BMP280;57489;37.404;24.920;2023-08-12T22:34:31;99914.16;;;28.92
70123;BMP280;57489;37.404;24.920;2023-08-12T22:39:31;99912.22;;;28.89
70123;BMP280;57489;37.404;24.920;2023-08-12T22:44:31;99897.94;;;28.92
70123;BMP280;57489;37.404;24.920;2023-08-12T22:49:32;99894.84;;;28.90
70123;BMP280;57489;37.404;24.920;2023-08-12T22:54:32;99890.25;;;28.84
70123;BMP280;57489;37.404;24.920;2023-08-12T22:59:33;99880.97;;;28.77
70123;BMP280;57489;37.404;24.920;2023-08-12T23:04:33;99874.41;;;28.82
70123;BMP280;57489;37.404;24.920;2023-08-12T23:09:34;99872.06;;;28.84
70123;BMP280;57489;37.404;24.920;2023-08-12T23:14:34;99865.16;;;28.83
70123;BMP280;57489;37.404;24.920;2023-08-12T23:19:34;99860.13;;;28.81
70123;BMP280;57489;37.404;24.920;2023-08-12T23:24:35;99856.28;;;28.79
70123;BMP280;57489;37.404;24.920;2023-08-12T23:29:35;99860.53;;;28.80
70123;BMP280;57489;37.404;24.920;2023-08-12T23:34:36;99856.28;;;28.83
70123;BMP280;57489;37.404;24.920;2023-08-12T23:39:36;99850.13;;;28.68
70123;BMP280;57489;37.404;24.920;2023-08-12T23:44:37;99853.25;;;28.56
70123;BMP280;57489;37.404;24.920;2023-08-12T23:49:37;99849.44;;;28.57
70123;BMP280;57489;37.404;24.920;2023-08-12T23:54:38;99847.09;;;28.59
70123;BMP280;57489;37.404;24.920;2023-08-12T23:59:38;99842.50;;;28.45
